createdAt,value
2022-09-10T00:01:56.388Z,56.64
2022-09-10T00:06:57.995Z,56.20
2022-09-10T00:11:59.484Z,56.27
2022-09-10T00:17:01.729Z,56.14
2022-09-10T00:22:03.232Z,55.35
2022-09-10T00:27:04.919Z,55.28
2022-09-10T00:32:06.501Z,55.28
2022-09-10T00:37:08.001Z,55.39
2022-09-10T00:42:11.309Z,54.63
2022-09-10T00:47:23.540Z,55.23
2022-09-10T00:52:25.070Z,55.14
2022-09-10T00:57:26.547Z,55.01
2022-09-10T01:02:28.074Z,55.73
2022-09-10T01:07:29.601Z,55.34
2022-09-10T01:12:53.493Z,56.00
2022-09-10T01:18:17.626Z,55.38
2022-09-10T01:23:27.183Z,56.34
2022-09-10T01:28:33.730Z,55.64
2022-09-10T01:33:37.815Z,56.51
2022-09-10T01:38:39.406Z,56.44
2022-09-10T01:43:41.943Z,56.50
2022-09-10T01:48:55.891Z,56.63
2022-09-10T01:54:01.843Z,55.88
2022-09-10T01:59:08.776Z,56.36
2022-09-10T02:04:10.298Z,57.29
2022-09-10T02:09:12.372Z,57.38
2022-09-10T02:14:14.530Z,57.26
2022-09-10T02:19:16.016Z,56.63
2022-09-10T02:24:17.560Z,57.40
2022-09-10T02:29:19.403Z,57.63
2022-09-10T02:34:21.688Z,56.85
2022-09-10T02:39:23.464Z,56.50
2022-09-10T02:44:27.105Z,56.61
2022-09-10T02:49:29.141Z,56.79
2022-09-10T02:54:30.642Z,56.33
2022-09-10T02:59:32.942Z,56.02
2022-09-10T03:04:34.451Z,56.36
2022-09-10T03:09:35.978Z,55.73
2022-09-10T03:14:37.494Z,55.60
2022-09-10T03:19:40.015Z,55.48
2022-09-10T03:24:41.932Z,55.38
2022-09-10T03:29:45.212Z,54.54
2022-09-10T03:34:46.695Z,54.61
2022-09-10T03:39:48.218Z,55.30
2022-09-10T03:44:49.708Z,55.18
2022-09-10T03:49:51.184Z,55.41
2022-09-10T03:54:52.656Z,55.06
2022-09-10T03:59:54.203Z,54.85
2022-09-10T04:04:55.727Z,54.92
2022-09-10T04:09:58.436Z,54.28
2022-09-10T04:15:01.854Z,54.46
2022-09-10T04:20:03.550Z,54.68
2022-09-10T04:25:05.406Z,55.29
2022-09-10T04:30:07.583Z,55.13
2022-09-10T04:35:09.152Z,55.62
2022-09-10T04:40:10.678Z,56.02
2022-09-10T04:45:12.104Z,55.94
2022-09-10T04:50:15.522Z,55.38
2022-09-10T04:55:17.086Z,54.98
2022-09-10T05:00:18.658Z,55.83
2022-09-10T05:05:20.132Z,55.79
2022-09-10T05:10:23.481Z,55.95
2022-09-10T05:15:24.968Z,55.42
2022-09-10T05:20:27.633Z,55.73
2022-09-10T05:25:29.590Z,55.31
2022-09-10T05:30:32.804Z,54.47
2022-09-10T05:35:34.748Z,55.29
2022-09-10T05:40:36.263Z,55.52
2022-09-10T05:45:37.985Z,55.54
2022-09-10T05:50:39.485Z,54.77
2022-09-10T05:55:40.987Z,55.58
2022-09-10T06:00:45.341Z,55.79
2022-09-10T06:05:53.152Z,55.39
2022-09-10T06:10:57.094Z,55.19
2022-09-10T06:15:58.692Z,54.99
2022-09-10T06:21:15.261Z,54.75
2022-09-10T06:26:17.273Z,55.35
2022-09-10T06:31:19.689Z,55.18
2022-09-10T06:36:21.167Z,55.31
2022-09-10T06:41:22.691Z,55.31
2022-09-10T06:47:02.342Z,55.54
2022-09-10T06:51:45.627Z,55.49
2022-09-10T06:56:48.786Z,55.36
2022-09-10T07:01:50.306Z,55.78
2022-09-10T07:06:51.858Z,55.52
2022-09-10T07:11:53.347Z,55.02
2022-09-10T07:16:55.542Z,55.03
2022-09-10T07:21:57.160Z,55.33
2022-09-10T07:26:58.728Z,55.44
2022-09-10T07:32:00.450Z,55.01
2022-09-10T07:37:01.928Z,54.91
2022-09-10T07:42:03.448Z,54.75
2022-09-10T07:47:04.978Z,54.39
2022-09-10T07:52:07.201Z,53.99
2022-09-10T07:57:08.688Z,53.95
2022-09-10T08:02:12.835Z,54.49
2022-09-10T08:07:17.194Z,54.19
2022-09-10T08:12:18.679Z,54.18
2022-09-10T08:17:20.154Z,54.09
2022-09-10T08:22:21.626Z,53.83
2022-09-10T08:27:23.168Z,53.78
2022-09-10T08:32:24.683Z,52.92
2022-09-10T08:37:26.174Z,53.24
2022-09-10T08:42:32.105Z,52.45
2022-09-10T08:47:42.206Z,53.10
2022-09-10T08:52:50.937Z,52.59
2022-09-10T08:58:07.344Z,52.22
2022-09-10T09:03:28.015Z,52.61
2022-09-10T09:08:33.865Z,51.98
2022-09-10T09:13:45.224Z,51.42
2022-09-10T09:19:21.058Z,51.98
2022-09-10T09:24:41.244Z,51.75
2022-09-10T09:30:01.784Z,51.69
2022-09-10T09:35:25.687Z,51.57
2022-09-10T09:40:50.024Z,51.62
2022-09-10T09:45:53.310Z,51.98
2022-09-10T09:50:55.813Z,51.70
2022-09-10T09:55:58.940Z,51.12
2022-09-10T10:01:03.353Z,50.56
2022-09-10T10:06:06.159Z,50.07
2022-09-10T10:11:08.003Z,49.91
2022-09-10T10:16:21.189Z,49.77
2022-09-10T10:21:33.028Z,49.23
2022-09-10T10:26:34.833Z,48.79
2022-09-10T10:31:45.945Z,48.39
2022-09-10T10:37:07.708Z,48.40
2022-09-10T10:42:13.582Z,47.25
2022-09-10T10:47:27.914Z,48.32
2022-09-10T10:52:42.091Z,48.19
2022-09-10T10:58:05.924Z,47.46
2022-09-10T11:03:14.435Z,46.55
2022-09-10T11:08:19.978Z,46.67
2022-09-10T11:13:33.670Z,45.84
2022-09-10T11:18:44.909Z,45.20
2022-09-10T11:23:58.171Z,46.82
2022-09-10T11:29:17.184Z,45.78
2022-09-10T11:34:32.847Z,45.90
2022-09-10T11:39:35.572Z,44.83
2022-09-10T11:44:58.295Z,44.83
2022-09-10T11:50:15.527Z,44.49
2022-09-10T11:55:17.504Z,44.00
2022-09-10T12:00:19.246Z,44.31
2022-09-10T12:05:39.219Z,44.65
2022-09-10T12:10:49.670Z,43.83
2022-09-10T12:15:56.268Z,44.86
2022-09-10T12:20:59.617Z,45.20
2022-09-10T12:26:21.367Z,45.36
2022-09-10T12:31:22.938Z,45.48
2022-09-10T12:36:27.191Z,45.95
2022-09-10T12:41:28.501Z,46.72
2022-09-10T12:46:31.297Z,46.92
2022-09-10T12:51:51.682Z,45.38
2022-09-10T12:57:20.339Z,46.18
2022-09-10T13:02:28.072Z,45.64
2022-09-10T13:07:36.844Z,47.45
2022-09-10T13:12:40.931Z,45.03
2022-09-10T13:17:47.999Z,43.96
2022-09-10T13:23:12.404Z,43.68
2022-09-10T13:28:28.714Z,46.26
2022-09-10T13:33:30.911Z,46.40
2022-09-10T13:39:02.934Z,45.17
2022-09-10T13:44:34.389Z,47.17
2022-09-10T13:49:41.926Z,44.94
2022-09-10T13:54:47.300Z,44.50
2022-09-10T13:59:50.210Z,45.57
2022-09-10T14:04:51.723Z,45.19
2022-09-10T14:09:56.648Z,45.96
2022-09-10T14:15:00.172Z,45.53
2022-09-10T14:20:16.232Z,45.27
2022-09-10T14:25:31.118Z,44.92
2022-09-10T14:30:33.004Z,46.32
2022-09-10T14:35:44.868Z,45.51
2022-09-10T14:40:47.544Z,46.72
2022-09-10T14:45:49.830Z,46.81
2022-09-10T14:50:51.452Z,47.45
2022-09-10T14:55:52.918Z,46.80
2022-09-10T15:00:54.607Z,47.05
2022-09-10T15:05:56.097Z,48.04
2022-09-10T15:10:57.586Z,47.82
2022-09-10T15:15:59.101Z,48.02
2022-09-10T15:21:01.557Z,48.34
2022-09-10T15:26:03.916Z,48.19
2022-09-10T15:31:05.720Z,49.21
2022-09-10T15:36:07.589Z,49.42
2022-09-10T15:41:13.208Z,50.30
2022-09-10T15:46:16.183Z,49.88
2022-09-10T15:51:21.702Z,50.30
2022-09-10T15:56:26.639Z,50.09
2022-09-10T16:01:28.912Z,49.96
2022-09-10T16:06:38.139Z,50.92
2022-09-10T16:11:40.465Z,51.13
2022-09-10T16:16:41.969Z,50.52
2022-09-10T16:21:45.743Z,51.08
2022-09-10T16:26:49.038Z,51.24
2022-09-10T16:31:50.582Z,51.09
2022-09-10T16:36:52.379Z,51.48
2022-09-10T16:41:54.090Z,51.28
2022-09-10T16:46:57.679Z,51.50
2022-09-10T16:51:59.173Z,53.37
2022-09-10T16:57:02.082Z,53.60
2022-09-10T17:02:04.626Z,53.31
2022-09-10T17:07:06.894Z,53.61
2022-09-10T17:12:10.461Z,54.00
2022-09-10T17:17:13.869Z,54.32
2022-09-10T17:22:15.398Z,54.33
2022-09-10T17:27:17.000Z,53.95
2022-09-10T17:32:18.489Z,53.90
2022-09-10T17:37:20.117Z,54.33
2022-09-10T17:42:21.654Z,54.06
2022-09-10T17:47:23.443Z,54.53
2022-09-10T17:52:25.356Z,54.52
2022-09-10T17:57:26.839Z,54.91
2022-09-10T18:02:29.127Z,54.86
2022-09-10T18:07:31.161Z,55.19
2022-09-10T18:12:32.536Z,55.84
2022-09-10T18:17:34.016Z,55.78
2022-09-10T18:22:35.486Z,56.14
2022-09-10T18:27:37.737Z,55.50
2022-09-10T18:32:39.295Z,56.11
2022-09-10T18:37:40.820Z,55.92
2022-09-10T18:42:46.530Z,56.24
2022-09-10T18:47:48.336Z,55.93
2022-09-10T18:52:49.842Z,55.93
2022-09-10T18:57:51.581Z,55.79
2022-09-10T19:02:53.989Z,55.98
2022-09-10T19:07:55.598Z,55.77
2022-09-10T19:12:57.088Z,55.42
2022-09-10T19:17:59.053Z,54.96
2022-09-10T19:23:02.483Z,54.65
2022-09-10T19:28:03.947Z,55.44
2022-09-10T19:33:05.655Z,56.17
2022-09-10T19:38:27.222Z,56.62
2022-09-10T19:43:29.035Z,58.19
2022-09-10T19:48:30.616Z,58.14
2022-09-10T19:53:33.738Z,59.31
2022-09-10T19:58:35.704Z,58.57
2022-09-10T20:03:37.882Z,57.07
2022-09-10T20:08:39.507Z,56.68
2022-09-10T20:13:41.253Z,56.42
2022-09-10T20:18:42.782Z,56.82
2022-09-10T20:23:45.550Z,56.96
2022-09-10T20:28:50.690Z,56.76
2022-09-10T20:33:59.644Z,57.64
2022-09-10T20:39:01.188Z,58.97
2022-09-10T20:44:02.668Z,59.15
2022-09-10T20:49:04.258Z,59.94
2022-09-10T20:54:06.914Z,60.34
2022-09-10T20:59:08.446Z,59.65
2022-09-10T21:04:10.215Z,59.56
2022-09-10T21:09:11.855Z,59.78
2022-09-10T21:14:13.432Z,59.26
2022-09-10T21:19:16.006Z,59.14
2022-09-10T21:24:18.928Z,59.14
2022-09-10T21:29:20.758Z,58.80
2022-09-10T21:34:22.242Z,58.16
2022-09-10T21:39:23.711Z,57.89
2022-09-10T21:44:25.276Z,57.59
2022-09-10T21:49:26.803Z,57.47
2022-09-10T21:54:28.507Z,56.97
2022-09-10T21:59:29.985Z,56.87
2022-09-10T22:04:31.459Z,57.21
2022-09-10T22:09:33.803Z,56.90
2022-09-10T22:14:35.310Z,56.96
2022-09-10T22:19:37.040Z,57.13
2022-09-10T22:24:38.515Z,57.84
2022-09-10T22:29:40.002Z,58.13
2022-09-10T22:34:43.235Z,58.54
2022-09-10T22:39:44.765Z,58.05
2022-09-10T22:44:46.308Z,57.93
2022-09-10T22:49:47.816Z,57.70
2022-09-10T22:54:49.300Z,57.49
2022-09-10T22:59:50.781Z,57.17
2022-09-10T23:04:52.386Z,57.48
2022-09-10T23:09:53.864Z,58.00
2022-09-10T23:14:55.336Z,58.46
2022-09-10T23:19:56.812Z,57.84
2022-09-10T23:24:58.314Z,58.15
2022-09-10T23:29:59.796Z,58.59
2022-09-10T23:35:01.274Z,59.27
2022-09-10T23:40:03.275Z,59.05
2022-09-10T23:45:05.533Z,58.07
2022-09-10T23:50:07.845Z,57.78
2022-09-10T23:55:09.403Z,58.66
